sensor_id;sensor_type;location;lat;lon;timestamp;P1;durP1;ratioP1;P2;durP2;ratioP2
27758;SDS011;15148;48.972;12.794;2023-09-18T00:04:53;5.18;;;3.03;;
27758;SDS011;15148;48.972;12.794;2023-09-18T00:09:55;3.83;;;3.20;;
27758;SDS011;15148;48.972;12.794;2023-09-18T00:14:57;5.00;;;3.38;;
27758;SDS011;15148;48.972;12.794;2023-09-18T00:19:58;6.10;;;3.60;;
27758;SDS011;15148;48.972;12.794;2023-09-18T00:25:00;3.50;;;3.13;;
27758;SDS011;15148;48.972;12.794;2023-09-18T00:30:05;6.45;;;3.72;;
27758;SDS011;15148;48.972;12.794;2023-09-18T00:35:08;5.78;;;4.10;;
27758;SDS011;15148;48.972;12.794;2023-09-18T00:40:10;5.22;;;4.35;;
27758;SDS011;15148;48.972;12.794;2023-09-18T00:45:12;5.03;;;3.97;;
27758;SDS011;15148;48.972;12.794;2023-09-18T00:50:14;3.28;;;2.88;;
27758;SDS011;15148;48.972;12.794;2023-09-18T00:55:17;3.28;;;2.95;;
27758;SDS011;15148;48.972;12.794;2023-09-18T01:00:19;3.80;;;3.08;;
27758;SDS011;15148;48.972;12.794;2023-09-18T01:05:21;6.18;;;3.35;;
27758;SDS011;15148;48.972;12.794;2023-09-18T01:10:23;4.57;;;4.15;;
27758;SDS011;15148;48.972;12.794;2023-09-18T01:15:30;4.25;;;3.35;;
27758;SDS011;15148;48.972;12.794;2023-09-18T01:20:38;5.70;;;4.07;;
27758;SDS011;15148;48.972;12.794;2023-09-18T01:25:40;5.38;;;4.18;;
27758;SDS011;15148;48.972;12.794;2023-09-18T01:30:41;4.68;;;4.22;;
27758;SDS011;15148;48.972;12.794;2023-09-18T01:35:44;7.30;;;4.07;;
27758;SDS011;15148;48.972;12.794;2023-09-18T01:40:47;4.20;;;3.80;;
27758;SDS011;15148;48.972;12.794;2023-09-18T01:45:49;5.88;;;3.67;;
27758;SDS011;15148;48.972;12.794;2023-09-18T01:50:51;4.70;;;3.88;;
27758;SDS011;15148;48.972;12.794;2023-09-18T01:55:53;4.30;;;3.70;;
27758;SDS011;15148;48.972;12.794;2023-09-18T02:00:55;3.95;;;3.42;;
27758;SDS011;15148;48.972;12.794;2023-09-18T02:05:59;4.13;;;3.70;;
27758;SDS011;15148;48.972;12.794;2023-09-18T02:11:01;4.93;;;4.40;;
27758;SDS011;15148;48.972;12.794;2023-09-18T02:16:04;7.20;;;5.80;;
27758;SDS011;15148;48.972;12.794;2023-09-18T02:21:06;8.02;;;4.88;;
27758;SDS011;15148;48.972;12.794;2023-09-18T02:26:08;7.00;;;6.30;;
27758;SDS011;15148;48.972;12.794;2023-09-18T02:31:10;6.20;;;4.93;;
27758;SDS011;15148;48.972;12.794;2023-09-18T02:36:13;7.40;;;5.68;;
27758;SDS011;15148;48.972;12.794;2023-09-18T02:41:15;6.40;;;4.68;;
27758;SDS011;15148;48.972;12.794;2023-09-18T02:46:17;8.50;;;5.30;;
27758;SDS011;15148;48.972;12.794;2023-09-18T02:51:20;5.38;;;4.88;;
27758;SDS011;15148;48.972;12.794;2023-09-18T02:56:22;6.55;;;5.05;;
27758;SDS011;15148;48.972;12.794;2023-09-18T03:01:24;6.07;;;5.45;;
27758;SDS011;15148;48.972;12.794;2023-09-18T03:06:27;5.60;;;5.07;;
27758;SDS011;15148;48.972;12.794;2023-09-18T03:11:29;5.63;;;5.07;;
27758;SDS011;15148;48.972;12.794;2023-09-18T03:16:31;6.70;;;4.80;;
27758;SDS011;15148;48.972;12.794;2023-09-18T03:21:34;4.90;;;4.50;;
27758;SDS011;15148;48.972;12.794;2023-09-18T03:26:37;4.97;;;4.55;;
27758;SDS011;15148;48.972;12.794;2023-09-18T03:31:38;5.15;;;4.57;;
27758;SDS011;15148;48.972;12.794;2023-09-18T03:36:40;4.70;;;4.20;;
27758;SDS011;15148;48.972;12.794;2023-09-18T03:41:42;4.50;;;4.10;;
27758;SDS011;15148;48.972;12.794;2023-09-18T03:46:44;4.55;;;4.15;;
27758;SDS011;15148;48.972;12.794;2023-09-18T03:51:46;5.43;;;4.57;;
27758;SDS011;15148;48.972;12.794;2023-09-18T03:56:48;8.18;;;5.22;;
27758;SDS011;15148;48.972;12.794;2023-09-18T04:01:50;4.93;;;4.53;;
27758;SDS011;15148;48.972;12.794;2023-09-18T04:06:53;7.43;;;5.15;;
27758;SDS011;15148;48.972;12.794;2023-09-18T04:11:55;8.15;;;6.25;;
27758;SDS011;15148;48.972;12.794;2023-09-18T04:16:58;8.60;;;6.03;;
27758;SDS011;15148;48.972;12.794;2023-09-18T04:22:01;6.85;;;4.78;;
27758;SDS011;15148;48.972;12.794;2023-09-18T04:27:03;9.43;;;6.53;;
27758;SDS011;15148;48.972;12.794;2023-09-18T04:32:05;13.27;;;6.20;;
27758;SDS011;15148;48.972;12.794;2023-09-18T04:37:08;11.82;;;6.85;;
27758;SDS011;15148;48.972;12.794;2023-09-18T04:42:10;8.00;;;5.28;;
27758;SDS011;15148;48.972;12.794;2023-09-18T04:47:12;8.68;;;5.80;;
27758;SDS011;15148;48.972;12.794;2023-09-18T04:52:14;6.28;;;5.03;;
27758;SDS011;15148;48.972;12.794;2023-09-18T04:57:18;7.32;;;6.13;;
27758;SDS011;15148;48.972;12.794;2023-09-18T05:02:20;19.85;;;14.93;;
27758;SDS011;15148;48.972;12.794;2023-09-18T05:07:22;15.10;;;12.48;;
27758;SDS011;15148;48.972;12.794;2023-09-18T05:12:24;11.55;;;9.55;;
27758;SDS011;15148;48.972;12.794;2023-09-18T05:17:42;11.23;;;9.35;;
27758;SDS011;15148;48.972;12.794;2023-09-18T05:22:46;9.45;;;8.45;;
27758;SDS011;15148;48.972;12.794;2023-09-18T05:27:51;8.25;;;6.70;;
27758;SDS011;15148;48.972;12.794;2023-09-18T05:32:58;10.65;;;6.88;;
27758;SDS011;15148;48.972;12.794;2023-09-18T05:38:06;9.48;;;7.57;;
27758;SDS011;15148;48.972;12.794;2023-09-18T05:43:08;12.23;;;9.88;;
27758;SDS011;15148;48.972;12.794;2023-09-18T05:48:11;19.63;;;12.50;;
27758;SDS011;15148;48.972;12.794;2023-09-18T05:53:13;16.35;;;10.88;;
27758;SDS011;15148;48.972;12.794;2023-09-18T05:58:15;16.60;;;12.55;;
27758;SDS011;15148;48.972;12.794;2023-09-18T06:03:18;14.05;;;11.57;;
27758;SDS011;15148;48.972;12.794;2023-09-18T06:08:22;15.00;;;11.38;;
27758;SDS011;15148;48.972;12.794;2023-09-18T06:13:25;11.07;;;9.30;;
27758;SDS011;15148;48.972;12.794;2023-09-18T06:18:27;9.82;;;7.55;;
27758;SDS011;15148;48.972;12.794;2023-09-18T06:23:29;13.25;;;9.68;;
27758;SDS011;15148;48.972;12.794;2023-09-18T06:28:31;7.55;;;6.53;;
27758;SDS011;15148;48.972;12.794;2023-09-18T06:33:33;6.63;;;5.40;;
27758;SDS011;15148;48.972;12.794;2023-09-18T06:38:34;5.47;;;4.97;;
27758;SDS011;15148;48.972;12.794;2023-09-18T06:43:36;6.32;;;4.60;;
27758;SDS011;15148;48.972;12.794;2023-09-18T06:48:38;5.43;;;4.05;;
27758;SDS011;15148;48.972;12.794;2023-09-18T06:53:40;5.40;;;4.90;;
27758;SDS011;15148;48.972;12.794;2023-09-18T06:58:42;6.57;;;4.90;;
27758;SDS011;15148;48.972;12.794;2023-09-18T07:03:44;5.72;;;5.07;;
27758;SDS011;15148;48.972;12.794;2023-09-18T07:08:48;5.28;;;4.43;;
27758;SDS011;15148;48.972;12.794;2023-09-18T07:13:54;7.05;;;5.05;;
27758;SDS011;15148;48.972;12.794;2023-09-18T07:18:56;5.05;;;4.60;;
27758;SDS011;15148;48.972;12.794;2023-09-18T07:23:58;5.53;;;5.03;;
27758;SDS011;15148;48.972;12.794;2023-09-18T07:29:00;5.30;;;4.80;;
27758;SDS011;15148;48.972;12.794;2023-09-18T07:34:03;5.70;;;5.07;;
27758;SDS011;15148;48.972;12.794;2023-09-18T07:39:05;4.80;;;4.38;;
27758;SDS011;15148;48.972;12.794;2023-09-18T07:44:07;6.43;;;4.85;;
27758;SDS011;15148;48.972;12.794;2023-09-18T07:49:09;4.88;;;4.47;;
27758;SDS011;15148;48.972;12.794;2023-09-18T07:54:13;5.47;;;4.30;;
27758;SDS011;15148;48.972;12.794;2023-09-18T07:59:17;6.45;;;4.85;;
27758;SDS011;15148;48.972;12.794;2023-09-18T08:04:19;5.88;;;5.10;;
27758;SDS011;15148;48.972;12.794;2023-09-18T08:09:20;4.82;;;4.32;;
27758;SDS011;15148;48.972;12.794;2023-09-18T08:14:23;4.82;;;4.43;;
27758;SDS011;15148;48.972;12.794;2023-09-18T08:19:25;4.32;;;3.97;;
27758;SDS011;15148;48.972;12.794;2023-09-18T08:24:28;4.93;;;4.20;;
27758;SDS011;15148;48.972;12.794;2023-09-18T08:29:29;4.53;;;4.13;;
27758;SDS011;15148;48.972;12.794;2023-09-18T08:34:31;5.00;;;4.60;;
27758;SDS011;15148;48.972;12.794;2023-09-18T08:39:33;5.05;;;4.65;;
27758;SDS011;15148;48.972;12.794;2023-09-18T08:44:38;4.90;;;4.50;;
27758;SDS011;15148;48.972;12.794;2023-09-18T08:49:43;4.75;;;4.43;;
27758;SDS011;15148;48.972;12.794;2023-09-18T08:54:46;5.20;;;4.70;;
27758;SDS011;15148;48.972;12.794;2023-09-18T08:59:48;4.72;;;4.32;;
27758;SDS011;15148;48.972;12.794;2023-09-18T09:04:53;4.30;;;3.85;;
27758;SDS011;15148;48.972;12.794;2023-09-18T09:09:55;4.40;;;4.00;;
27758;SDS011;15148;48.972;12.794;2023-09-18T09:15:03;4.57;;;4.18;;
27758;SDS011;15148;48.972;12.794;2023-09-18T09:20:09;5.00;;;4.00;;
27758;SDS011;15148;48.972;12.794;2023-09-18T09:25:25;5.10;;;4.47;;
27758;SDS011;15148;48.972;12.794;2023-09-18T09:30:29;5.30;;;4.07;;
27758;SDS011;15148;48.972;12.794;2023-09-18T09:35:33;4.82;;;4.43;;
27758;SDS011;15148;48.972;12.794;2023-09-18T09:40:39;4.95;;;4.07;;
27758;SDS011;15148;48.972;12.794;2023-09-18T09:45:42;5.60;;;4.85;;
27758;SDS011;15148;48.972;12.794;2023-09-18T09:50:47;4.63;;;4.22;;
27758;SDS011;15148;48.972;12.794;2023-09-18T09:55:54;6.57;;;4.35;;
27758;SDS011;15148;48.972;12.794;2023-09-18T10:00:56;5.40;;;4.90;;
27758;SDS011;15148;48.972;12.794;2023-09-18T10:06:00;5.43;;;4.97;;
27758;SDS011;15148;48.972;12.794;2023-09-18T10:11:06;5.18;;;4.40;;
27758;SDS011;15148;48.972;12.794;2023-09-18T10:16:12;4.57;;;4.13;;
27758;SDS011;15148;48.972;12.794;2023-09-18T10:21:22;4.50;;;4.13;;
27758;SDS011;15148;48.972;12.794;2023-09-18T10:26:38;6.72;;;4.75;;
27758;SDS011;15148;48.972;12.794;2023-09-18T10:31:48;4.80;;;4.40;;
27758;SDS011;15148;48.972;12.794;2023-09-18T10:36:53;10.30;;;8.23;;
27758;SDS011;15148;48.972;12.794;2023-09-18T10:41:56;5.45;;;4.90;;
27758;SDS011;15148;48.972;12.794;2023-09-18T10:47:03;6.97;;;5.95;;
27758;SDS011;15148;48.972;12.794;2023-09-18T10:52:11;4.75;;;4.20;;
27758;SDS011;15148;48.972;12.794;2023-09-18T10:57:14;4.95;;;4.53;;
27758;SDS011;15148;48.972;12.794;2023-09-18T11:02:16;6.78;;;6.22;;
27758;SDS011;15148;48.972;12.794;2023-09-18T11:07:19;6.95;;;6.35;;
27758;SDS011;15148;48.972;12.794;2023-09-18T11:12:23;7.35;;;5.97;;
27758;SDS011;15148;48.972;12.794;2023-09-18T11:17:44;6.57;;;5.93;;
27758;SDS011;15148;48.972;12.794;2023-09-18T11:22:47;5.82;;;5.32;;
27758;SDS011;15148;48.972;12.794;2023-09-18T11:28:08;7.35;;;6.70;;
27758;SDS011;15148;48.972;12.794;2023-09-18T11:33:29;6.80;;;6.18;;
27758;SDS011;15148;48.972;12.794;2023-09-18T11:38:32;7.90;;;7.07;;
27758;SDS011;15148;48.972;12.794;2023-09-18T11:43:37;7.75;;;6.18;;
27758;SDS011;15148;48.972;12.794;2023-09-18T11:48:41;6.30;;;5.70;;
27758;SDS011;15148;48.972;12.794;2023-09-18T11:53:43;7.93;;;5.25;;
27758;SDS011;15148;48.972;12.794;2023-09-18T11:58:46;7.15;;;6.45;;
27758;SDS011;15148;48.972;12.794;2023-09-18T12:03:53;7.50;;;6.30;;
27758;SDS011;15148;48.972;12.794;2023-09-18T12:08:56;6.57;;;5.97;;
27758;SDS011;15148;48.972;12.794;2023-09-18T12:13:58;6.38;;;5.78;;
27758;SDS011;15148;48.972;12.794;2023-09-18T12:19:00;7.60;;;5.95;;
27758;SDS011;15148;48.972;12.794;2023-09-18T12:24:03;5.63;;;5.00;;
27758;SDS011;15148;48.972;12.794;2023-09-18T12:29:06;6.78;;;5.25;;
27758;SDS011;15148;48.972;12.794;2023-09-18T12:34:18;5.72;;;5.07;;
27758;SDS011;15148;48.972;12.794;2023-09-18T12:39:24;6.53;;;5.35;;
27758;SDS011;15148;48.972;12.794;2023-09-18T12:44:33;6.15;;;5.55;;
27758;SDS011;15148;48.972;12.794;2023-09-18T12:49:35;6.60;;;5.43;;
27758;SDS011;15148;48.972;12.794;2023-09-18T12:54:43;6.40;;;5.13;;
27758;SDS011;15148;48.972;12.794;2023-09-18T12:59:55;6.88;;;5.15;;
27758;SDS011;15148;48.972;12.794;2023-09-18T13:04:57;6.22;;;5.68;;
27758;SDS011;15148;48.972;12.794;2023-09-18T13:10:00;6.07;;;5.47;;
27758;SDS011;15148;48.972;12.794;2023-09-18T13:15:11;7.45;;;5.00;;
27758;SDS011;15148;48.972;12.794;2023-09-18T13:20:16;6.15;;;5.55;;
27758;SDS011;15148;48.972;12.794;2023-09-18T13:25:25;5.90;;;5.35;;
27758;SDS011;15148;48.972;12.794;2023-09-18T13:30:30;5.93;;;4.85;;
27758;SDS011;15148;48.972;12.794;2023-09-18T13:35:33;8.88;;;5.90;;
27758;SDS011;15148;48.972;12.794;2023-09-18T13:40:41;7.90;;;5.85;;
27758;SDS011;15148;48.972;12.794;2023-09-18T13:45:45;5.85;;;5.35;;
27758;SDS011;15148;48.972;12.794;2023-09-18T13:50:48;6.28;;;5.20;;
27758;SDS011;15148;48.972;12.794;2023-09-18T13:55:50;8.27;;;6.55;;
27758;SDS011;15148;48.972;12.794;2023-09-18T14:00:52;11.75;;;4.95;;
27758;SDS011;15148;48.972;12.794;2023-09-18T14:05:54;8.68;;;3.90;;
27758;SDS011;15148;48.972;12.794;2023-09-18T14:10:56;7.35;;;2.53;;
27758;SDS011;15148;48.972;12.794;2023-09-18T14:15:58;8.45;;;2.47;;
27758;SDS011;15148;48.972;12.794;2023-09-18T14:21:00;6.28;;;1.58;;
27758;SDS011;15148;48.972;12.794;2023-09-18T14:26:03;5.63;;;1.98;;
27758;SDS011;15148;48.972;12.794;2023-09-18T14:31:05;8.23;;;2.05;;
27758;SDS011;15148;48.972;12.794;2023-09-18T14:36:06;8.02;;;2.30;;
27758;SDS011;15148;48.972;12.794;2023-09-18T14:41:08;7.40;;;1.95;;
27758;SDS011;15148;48.972;12.794;2023-09-18T14:46:10;6.72;;;1.48;;
27758;SDS011;15148;48.972;12.794;2023-09-18T14:51:12;3.03;;;1.83;;
27758;SDS011;15148;48.972;12.794;2023-09-18T14:56:14;3.45;;;1.63;;
27758;SDS011;15148;48.972;12.794;2023-09-18T15:01:16;3.08;;;1.23;;
27758;SDS011;15148;48.972;12.794;2023-09-18T15:06:18;2.95;;;1.90;;
27758;SDS011;15148;48.972;12.794;2023-09-18T15:11:20;3.20;;;1.50;;
27758;SDS011;15148;48.972;12.794;2023-09-18T15:16:22;3.03;;;1.27;;
27758;SDS011;15148;48.972;12.794;2023-09-18T15:21:24;5.30;;;1.35;;
27758;SDS011;15148;48.972;12.794;2023-09-18T15:26:28;5.38;;;2.00;;
27758;SDS011;15148;48.972;12.794;2023-09-18T15:31:30;7.07;;;1.40;;
27758;SDS011;15148;48.972;12.794;2023-09-18T15:36:31;4.38;;;1.55;;
27758;SDS011;15148;48.972;12.794;2023-09-18T15:41:33;4.78;;;1.52;;
27758;SDS011;15148;48.972;12.794;2023-09-18T15:46:36;3.17;;;1.20;;
27758;SDS011;15148;48.972;12.794;2023-09-18T15:51:38;4.53;;;2.05;;
27758;SDS011;15148;48.972;12.794;2023-09-18T15:56:39;2.20;;;1.17;;
27758;SDS011;15148;48.972;12.794;2023-09-18T16:01:42;8.35;;;1.70;;
27758;SDS011;15148;48.972;12.794;2023-09-18T16:06:44;7.00;;;1.70;;
27758;SDS011;15148;48.972;12.794;2023-09-18T16:11:47;6.65;;;1.40;;
27758;SDS011;15148;48.972;12.794;2023-09-18T16:16:49;8.35;;;1.23;;
27758;SDS011;15148;48.972;12.794;2023-09-18T16:21:52;2.55;;;0.77;;
27758;SDS011;15148;48.972;12.794;2023-09-18T16:26:54;1.58;;;0.98;;
27758;SDS011;15148;48.972;12.794;2023-09-18T16:31:56;6.03;;;1.20;;
27758;SDS011;15148;48.972;12.794;2023-09-18T16:36:58;3.42;;;1.20;;
27758;SDS011;15148;48.972;12.794;2023-09-18T16:42:01;4.53;;;1.50;;
27758;SDS011;15148;48.972;12.794;2023-09-18T16:47:03;4.47;;;1.10;;
27758;SDS011;15148;48.972;12.794;2023-09-18T16:52:05;1.45;;;1.00;;
27758;SDS011;15148;48.972;12.794;2023-09-18T16:57:07;2.97;;;1.25;;
27758;SDS011;15148;48.972;12.794;2023-09-18T17:02:09;5.10;;;1.40;;
27758;SDS011;15148;48.972;12.794;2023-09-18T17:07:10;9.82;;;2.70;;
27758;SDS011;15148;48.972;12.794;2023-09-18T17:12:12;5.40;;;3.20;;
27758;SDS011;15148;48.972;12.794;2023-09-18T17:17:14;4.70;;;1.70;;
27758;SDS011;15148;48.972;12.794;2023-09-18T17:22:16;2.10;;;1.73;;
27758;SDS011;15148;48.972;12.794;2023-09-18T17:27:19;3.00;;;1.60;;
27758;SDS011;15148;48.972;12.794;2023-09-18T17:32:21;6.28;;;1.77;;
27758;SDS011;15148;48.972;12.794;2023-09-18T17:37:22;2.78;;;1.38;;
27758;SDS011;15148;48.972;12.794;2023-09-18T17:42:26;3.55;;;1.63;;
27758;SDS011;15148;48.972;12.794;2023-09-18T17:47:28;2.13;;;1.40;;
27758;SDS011;15148;48.972;12.794;2023-09-18T17:52:31;2.83;;;1.40;;
27758;SDS011;15148;48.972;12.794;2023-09-18T17:57:35;2.90;;;1.60;;
27758;SDS011;15148;48.972;12.794;2023-09-18T18:02:38;1.52;;;1.42;;
27758;SDS011;15148;48.972;12.794;2023-09-18T18:07:41;3.83;;;1.85;;
27758;SDS011;15148;48.972;12.794;2023-09-18T18:12:43;2.88;;;1.48;;
27758;SDS011;15148;48.972;12.794;2023-09-18T18:17:45;4.18;;;1.40;;
27758;SDS011;15148;48.972;12.794;2023-09-18T18:22:47;3.22;;;1.77;;
27758;SDS011;15148;48.972;12.794;2023-09-18T18:27:49;4.18;;;1.45;;
27758;SDS011;15148;48.972;12.794;2023-09-18T18:32:53;5.00;;;1.80;;
27758;SDS011;15148;48.972;12.794;2023-09-18T18:37:55;1.42;;;1.30;;
27758;SDS011;15148;48.972;12.794;2023-09-18T18:42:56;1.63;;;1.20;;
27758;SDS011;15148;48.972;12.794;2023-09-18T18:47:58;3.45;;;1.88;;
27758;SDS011;15148;48.972;12.794;2023-09-18T18:53:02;3.65;;;1.50;;
27758;SDS011;15148;48.972;12.794;2023-09-18T18:58:05;2.13;;;1.17;;
27758;SDS011;15148;48.972;12.794;2023-09-18T19:03:07;8.38;;;1.23;;
27758;SDS011;15148;48.972;12.794;2023-09-18T19:08:11;1.75;;;1.10;;
27758;SDS011;15148;48.972;12.794;2023-09-18T19:13:13;2.28;;;1.20;;
27758;SDS011;15148;48.972;12.794;2023-09-18T19:18:14;2.50;;;1.00;;
27758;SDS011;15148;48.972;12.794;2023-09-18T19:23:18;3.33;;;1.33;;
27758;SDS011;15148;48.972;12.794;2023-09-18T19:28:21;1.88;;;1.20;;
27758;SDS011;15148;48.972;12.794;2023-09-18T19:33:25;3.03;;;1.00;;
27758;SDS011;15148;48.972;12.794;2023-09-18T19:38:30;1.20;;;1.02;;
27758;SDS011;15148;48.972;12.794;2023-09-18T19:43:33;1.23;;;0.95;;
27758;SDS011;15148;48.972;12.794;2023-09-18T19:48:34;2.45;;;0.93;;
27758;SDS011;15148;48.972;12.794;2023-09-18T19:53:36;3.13;;;0.90;;
27758;SDS011;15148;48.972;12.794;2023-09-18T19:58:38;2.20;;;1.27;;
27758;SDS011;15148;48.972;12.794;2023-09-18T20:03:40;4.50;;;1.30;;
27758;SDS011;15148;48.972;12.794;2023-09-18T20:08:42;1.25;;;0.88;;
27758;SDS011;15148;48.972;12.794;2023-09-18T20:13:44;4.60;;;1.27;;
27758;SDS011;15148;48.972;12.794;2023-09-18T20:18:47;1.40;;;1.23;;
27758;SDS011;15148;48.972;12.794;2023-09-18T20:23:51;1.73;;;1.17;;
27758;SDS011;15148;48.972;12.794;2023-09-18T20:28:54;1.90;;;1.27;;
27758;SDS011;15148;48.972;12.794;2023-09-18T20:33:56;2.88;;;1.42;;
27758;SDS011;15148;48.972;12.794;2023-09-18T20:38:58;2.55;;;1.13;;
27758;SDS011;15148;48.972;12.794;2023-09-18T20:44:00;3.13;;;1.60;;
27758;SDS011;15148;48.972;12.794;2023-09-18T20:49:02;3.60;;;1.27;;
27758;SDS011;15148;48.972;12.794;2023-09-18T20:54:05;5.15;;;1.23;;
27758;SDS011;15148;48.972;12.794;2023-09-18T20:59:08;1.55;;;1.13;;
27758;SDS011;15148;48.972;12.794;2023-09-18T21:04:10;1.35;;;1.05;;
27758;SDS011;15148;48.972;12.794;2023-09-18T21:09:12;2.15;;;1.30;;
27758;SDS011;15148;48.972;12.794;2023-09-18T21:14:15;4.78;;;1.60;;
27758;SDS011;15148;48.972;12.794;2023-09-18T21:19:17;2.58;;;1.60;;
27758;SDS011;15148;48.972;12.794;2023-09-18T21:24:19;4.30;;;1.50;;
27758;SDS011;15148;48.972;12.794;2023-09-18T21:29:21;5.82;;;1.30;;
27758;SDS011;15148;48.972;12.794;2023-09-18T21:34:27;1.92;;;1.15;;
27758;SDS011;15148;48.972;12.794;2023-09-18T21:39:29;3.42;;;1.30;;
27758;SDS011;15148;48.972;12.794;2023-09-18T21:44:31;3.33;;;1.30;;
27758;SDS011;15148;48.972;12.794;2023-09-18T21:49:33;2.08;;;1.30;;
27758;SDS011;15148;48.972;12.794;2023-09-18T21:54:37;1.35;;;1.10;;
27758;SDS011;15148;48.972;12.794;2023-09-18T21:59:40;3.33;;;1.27;;
27758;SDS011;15148;48.972;12.794;2023-09-18T22:04:42;2.58;;;1.35;;
27758;SDS011;15148;48.972;12.794;2023-09-18T22:09:45;7.22;;;1.38;;
27758;SDS011;15148;48.972;12.794;2023-09-18T22:14:53;4.28;;;1.15;;
27758;SDS011;15148;48.972;12.794;2023-09-18T22:19:55;1.52;;;1.10;;
27758;SDS011;15148;48.972;12.794;2023-09-18T22:24:57;1.65;;;1.10;;
27758;SDS011;15148;48.972;12.794;2023-09-18T22:29:58;2.97;;;1.38;;
27758;SDS011;15148;48.972;12.794;2023-09-18T22:35:00;2.35;;;1.42;;
27758;SDS011;15148;48.972;12.794;2023-09-18T22:56:32;3.45;;;1.55;;
27758;SDS011;15148;48.972;12.794;2023-09-18T23:01:34;1.10;;;1.00;;
27758;SDS011;15148;48.972;12.794;2023-09-18T23:06:36;3.75;;;1.30;;
27758;SDS011;15148;48.972;12.794;2023-09-18T23:11:38;3.25;;;1.50;;
27758;SDS011;15148;48.972;12.794;2023-09-18T23:16:42;2.08;;;1.20;;
27758;SDS011;15148;48.972;12.794;2023-09-18T23:21:45;3.58;;;1.67;;
27758;SDS011;15148;48.972;12.794;2023-09-18T23:26:47;2.90;;;1.20;;
27758;SDS011;15148;48.972;12.794;2023-09-18T23:31:49;1.98;;;1.40;;
27758;SDS011;15148;48.972;12.794;2023-09-18T23:36:53;1.98;;;1.27;;
27758;SDS011;15148;48.972;12.794;2023-09-18T23:41:58;1.25;;;1.13;;
27758;SDS011;15148;48.972;12.794;2023-09-18T23:47:00;1.73;;;1.08;;
27758;SDS011;15148;48.972;12.794;2023-09-18T23:52:02;3.88;;;1.00;;
27758;SDS011;15148;48.972;12.794;2023-09-18T23:57:05;5.40;;;1.45;;
